Time;durP1;ratioP1;P1;durP2;ratioP2;P2;SDS_P1;SDS_P2;PMS_P1;PMS_P2;Temp;Humidity;BMP_temperature;BMP_pressure;BME280_temperature;BME280_humidity;BME280_pressure;Samples;Min_cycle;Max_cycle;Signal;HPM_P1;HPM_P2
2021/10/13 00:01:46;;;;;;;12.40;7.20;;;7.20;89.00;;;;;;5012290;28;20425;-73
2021/10/13 00:04:11;;;;;;;11.55;7.10;;;7.10;89.00;;;;;;5009564;28;20033;-76
2021/10/13 00:06:37;;;;;;;12.25;7.97;;;7.10;89.00;;;;;;5009595;28;20465;-73
2021/10/13 00:09:03;;;;;;;16.60;7.25;;;7.10;88.90;;;;;;4988006;28;20096;-74
2021/10/13 00:11:29;;;;;;;11.90;7.55;;;7.10;89.00;;;;;;5000395;28;20058;-74
2021/10/13 00:13:54;;;;;;;13.82;7.68;;;7.20;88.90;;;;;;5008932;28;20037;-74
2021/10/13 00:16:20;;;;;;;13.73;7.50;;;7.10;88.80;;;;;;5006786;28;20042;-74
2021/10/13 00:18:46;;;;;;;13.52;7.05;;;7.10;88.90;;;;;;5005930;28;20511;-74
2021/10/13 00:21:11;;;;;;;12.68;7.55;;;7.10;88.90;;;;;;5003853;28;20038;-76
2021/10/13 00:23:37;;;;;;;13.65;7.68;;;7.20;89.00;;;;;;4999325;28;20041;-74
2021/10/13 00:26:03;;;;;;;11.85;6.70;;;7.20;88.90;;;;;;5009683;28;20057;-74
2021/10/13 00:28:28;;;;;;;11.93;7.18;;;7.10;88.80;;;;;;5004561;28;20035;-74
2021/10/13 00:30:54;;;;;;;12.45;7.45;;;7.10;88.90;;;;;;5009371;28;20041;-74
2021/10/13 00:33:20;;;;;;;15.10;7.82;;;7.10;88.90;;;;;;4997188;28;20038;-74
2021/10/13 00:35:45;;;;;;;13.95;7.95;;;7.10;88.90;;;;;;5001453;28;20041;-74
2021/10/13 00:38:11;;;;;;;14.50;8.00;;;7.10;89.10;;;;;;5008302;28;20045;-75
2021/10/13 00:40:37;;;;;;;11.98;7.43;;;7.10;89.20;;;;;;5010697;28;20034;-83
2021/10/13 00:43:02;;;;;;;13.27;7.03;;;7.10;89.30;;;;;;5007293;28;20033;-74
2021/10/13 00:45:28;;;;;;;12.55;7.72;;;7.20;89.20;;;;;;5010803;28;20064;-74
2021/10/13 00:47:54;;;;;;;13.52;7.82;;;7.20;89.10;;;;;;5008023;28;20121;-75
2021/10/13 00:50:20;;;;;;;14.63;8.25;;;7.20;88.90;;;;;;5007053;28;20088;-81
2021/10/13 00:52:45;;;;;;;11.95;7.90;;;7.20;88.80;;;;;;5010199;28;20033;-77
2021/10/13 00:55:22;;;;;;;15.93;8.60;;;7.20;88.90;;;;;;5008637;28;20474;-74
2021/10/13 00:57:52;;;;;;;12.63;7.85;;;7.20;89.00;;;;;;5005503;28;20484;-76
2021/10/13 01:00:19;;;;;;;12.27;8.13;;;7.20;89.10;;;;;;4988282;28;20125;-74
2021/10/13 01:02:54;;;;;;;12.05;8.00;;;7.20;89.00;;;;;;5011255;28;20473;-74
2021/10/13 01:05:43;;;;;;;13.55;8.20;;;7.20;89.00;;;;;;5009704;28;20129;-76
2021/10/13 01:08:32;;;;;;;13.38;8.57;;;7.20;88.90;;;;;;4999829;28;20053;-75
2021/10/13 01:11:20;;;;;;;14.23;8.85;;;7.20;88.90;;;;;;5008384;28;20038;-77
2021/10/13 01:13:48;;;;;;;16.33;9.38;;;7.20;89.00;;;;;;5005076;28;20493;-75
2021/10/13 01:16:48;;;;;;;13.90;8.45;;;7.20;89.10;;;;;;5005138;28;20500;-75
2021/10/13 01:19:39;;;;;;;15.90;9.27;;;7.40;89.20;;;;;;4981575;28;20048;-78
2021/10/13 01:22:32;;;;;;;15.15;9.63;;;7.40;89.10;;;;;;5005959;28;20400;-79
2021/10/13 01:25:48;;;;;;;13.48;9.65;;;7.40;89.10;;;;;;5010829;28;20057;-79
2021/10/13 01:28:19;;;;;;;19.20;10.48;;;7.40;89.00;;;;;;4995200;28;20088;-76
2021/10/13 01:30:51;;;;;;;14.57;9.77;;;7.40;89.00;;;;;;5009435;28;20049;-75
2021/10/13 01:33:24;;;;;;;15.88;9.90;;;7.50;89.00;;;;;;5008306;28;20042;-74
2021/10/13 01:35:54;;;;;;;17.70;9.65;;;7.50;89.10;;;;;;5004289;28;20061;-76
2021/10/13 01:38:25;;;;;;;13.85;9.05;;;7.50;89.10;;;;;;4992341;28;20034;-77
2021/10/13 01:40:54;;;;;;;16.67;9.05;;;7.60;89.00;;;;;;5007242;28;20042;-74
2021/10/13 01:43:22;;;;;;;13.85;9.40;;;7.60;89.20;;;;;;5009393;28;20049;-75
2021/10/13 01:45:50;;;;;;;15.88;9.75;;;7.70;89.10;;;;;;4991514;28;20030;-76
2021/10/13 01:48:17;;;;;;;17.10;10.20;;;7.60;89.10;;;;;;5009302;28;20095;-74
2021/10/13 01:50:44;;;;;;;15.93;10.05;;;7.70;89.20;;;;;;4996212;28;20076;-75
2021/10/13 01:53:11;;;;;;;17.42;9.88;;;7.70;89.30;;;;;;5008083;28;20052;-75
2021/10/13 01:55:38;;;;;;;19.70;10.30;;;7.70;89.30;;;;;;5009064;28;20034;-75
2021/10/13 01:58:04;;;;;;;17.63;10.45;;;7.80;89.20;;;;;;5006614;28;20034;-77
2021/10/13 02:00:30;;;;;;;18.00;11.20;;;7.70;89.20;;;;;;5011203;28;20507;-74
2021/10/13 02:02:59;;;;;;;21.95;10.90;;;7.80;89.20;;;;;;5013792;28;20116;-74
2021/10/13 02:05:26;;;;;;;15.05;9.90;;;7.70;89.30;;;;;;5007130;28;20030;-74
2021/10/13 02:07:54;;;;;;;13.85;9.70;;;7.80;89.40;;;;;;5005363;28;20034;-75
2021/10/13 02:10:22;;;;;;;15.55;10.48;;;7.80;89.40;;;;;;5002897;28;20030;-75
2021/10/13 02:12:52;;;;;;;17.65;10.45;;;7.80;89.40;;;;;;5005327;28;20069;-76
2021/10/13 02:15:17;;;;;;;16.73;9.82;;;7.90;89.50;;;;;;5006814;28;20022;-79
2021/10/13 02:17:46;;;;;;;15.27;10.40;;;7.90;89.50;;;;;;5008835;28;20192;-74
2021/10/13 02:20:14;;;;;;;15.57;9.80;;;7.90;89.40;;;;;;5006950;28;20034;-78
2021/10/13 02:22:46;;;;;;;16.73;11.13;;;7.90;89.50;;;;;;4994132;28;20133;-74
2021/10/13 02:25:12;;;;;;;15.32;10.20;;;7.90;89.50;;;;;;5005866;28;20034;-74
2021/10/13 02:28:02;;;;;;;22.35;11.35;;;7.90;89.60;;;;;;5006789;28;20038;-74
2021/10/13 02:30:28;;;;;;;16.10;10.32;;;8.00;89.60;;;;;;5003489;28;20497;-74
2021/10/13 02:32:54;;;;;;;14.30;9.63;;;8.00;89.60;;;;;;5006526;28;20045;-74
2021/10/13 02:35:19;;;;;;;15.35;9.60;;;8.10;89.70;;;;;;5001235;28;20040;-74
2021/10/13 02:37:45;;;;;;;14.85;10.02;;;8.10;89.70;;;;;;5006479;28;20034;-76
2021/10/13 02:40:11;;;;;;;13.57;9.32;;;8.10;89.60;;;;;;5006176;28;20393;-75
2021/10/13 02:42:39;;;;;;;14.57;10.43;;;8.10;89.60;;;;;;4987828;28;20036;-75
2021/10/13 02:45:05;;;;;;;17.00;10.45;;;8.10;89.60;;;;;;5005525;28;20031;-75
2021/10/13 02:47:39;;;;;;;14.45;9.48;;;8.10;89.60;;;;;;5006393;28;20034;-74
2021/10/13 02:50:19;;;;;;;15.65;10.38;;;8.10;89.60;;;;;;5006318;28;20046;-75
2021/10/13 02:53:05;;;;;;;15.32;9.77;;;8.10;89.60;;;;;;5002740;28;20554;-74
2021/10/13 02:55:47;;;;;;;16.25;10.07;;;8.10;89.50;;;;;;5003025;28;20443;-74
2021/10/13 02:58:22;;;;;;;15.38;9.75;;;8.10;89.50;;;;;;5005408;28;20508;-75
2021/10/13 03:00:50;;;;;;;15.98;11.23;;;8.10;89.60;;;;;;4989329;28;20105;-75
2021/10/13 03:03:20;;;;;;;14.13;9.65;;;8.10;89.60;;;;;;5006239;28;20038;-76
2021/10/13 03:05:49;;;;;;;15.57;10.38;;;8.20;89.60;;;;;;5005956;28;20041;-74
2021/10/13 03:08:17;;;;;;;19.38;10.63;;;8.20;89.60;;;;;;5006398;28;20046;-73
2021/10/13 03:10:47;;;;;;;15.40;9.73;;;8.20;89.70;;;;;;5007738;28;20092;-75
2021/10/13 03:13:15;;;;;;;16.60;10.05;;;8.20;89.70;;;;;;5002800;28;20073;-81
2021/10/13 03:15:44;;;;;;;15.00;9.18;;;8.20;89.70;;;;;;5003947;28;20081;-74
2021/10/13 03:18:12;;;;;;;14.85;9.95;;;8.20;89.80;;;;;;4987817;28;20042;-79
2021/10/13 03:20:39;;;;;;;17.67;10.27;;;8.30;89.70;;;;;;5008120;28;20122;-76
2021/10/13 03:23:06;;;;;;;14.48;9.77;;;8.30;89.60;;;;;;4988550;28;20584;-76
2021/10/13 03:25:32;;;;;;;14.10;9.75;;;8.30;89.60;;;;;;5006734;28;20030;-79
2021/10/13 03:28:00;;;;;;;15.35;10.15;;;8.30;89.60;;;;;;4985310;28;20034;-79
2021/10/13 03:30:26;;;;;;;13.93;9.07;;;8.30;89.70;;;;;;5004608;28;20465;-75
2021/10/13 03:32:52;;;;;;;13.85;8.88;;;8.30;89.70;;;;;;5005926;28;20038;-74
2021/10/13 03:35:26;;;;;;;18.15;9.85;;;8.40;89.80;;;;;;5004819;28;20037;-76
2021/10/13 03:37:54;;;;;;;15.32;9.90;;;8.40;89.80;;;;;;4989811;28;20441;-74
2021/10/13 03:40:20;;;;;;;16.50;10.20;;;8.40;89.70;;;;;;5005647;28;20128;-76
2021/10/13 03:42:46;;;;;;;15.35;10.00;;;8.40;89.70;;;;;;5004434;28;20062;-73
2021/10/13 03:45:14;;;;;;;15.25;10.05;;;8.40;89.70;;;;;;5005525;28;20034;-75
2021/10/13 03:47:40;;;;;;;15.05;9.35;;;8.40;89.70;;;;;;5007085;28;20124;-74
2021/10/13 03:50:06;;;;;;;15.60;9.25;;;8.40;89.80;;;;;;5004469;28;20046;-74
2021/10/13 03:52:32;;;;;;;17.55;10.82;;;8.40;89.80;;;;;;5006613;28;20042;-75
2021/10/13 03:54:58;;;;;;;16.35;9.63;;;8.40;89.80;;;;;;5004631;28;20375;-74
2021/10/13 03:57:23;;;;;;;16.08;10.95;;;8.40;89.80;;;;;;5003990;28;20034;-75
2021/10/13 03:59:49;;;;;;;17.75;10.43;;;8.40;89.90;;;;;;5008908;28;20131;-75
2021/10/13 04:02:15;;;;;;;17.85;9.95;;;8.40;89.90;;;;;;5008615;28;20499;-77
2021/10/13 04:04:40;;;;;;;15.45;10.20;;;8.40;89.90;;;;;;4990510;28;20034;-75
2021/10/13 04:07:06;;;;;;;15.23;9.82;;;8.40;89.90;;;;;;5010472;28;20034;-74
2021/10/13 04:09:32;;;;;;;15.63;10.38;;;8.40;89.80;;;;;;5006593;28;20109;-74
2021/10/13 04:11:57;;;;;;;15.55;9.90;;;8.40;89.70;;;;;;5004703;28;20054;-77
2021/10/13 04:14:23;;;;;;;14.40;10.20;;;8.40;89.80;;;;;;5003473;28;20151;-74
2021/10/13 04:16:48;;;;;;;15.63;10.68;;;8.40;89.80;;;;;;5005822;28;20057;-75
2021/10/13 04:19:14;;;;;;;19.55;10.63;;;8.40;89.70;;;;;;5006461;28;20058;-74
2021/10/13 04:21:40;;;;;;;15.07;10.27;;;8.40;89.80;;;;;;4987688;28;20128;-74
2021/10/13 04:24:05;;;;;;;14.88;9.38;;;8.40;89.90;;;;;;5004569;28;20041;-77
2021/10/13 04:26:31;;;;;;;14.55;9.38;;;8.40;89.90;;;;;;5002657;28;20523;-73
2021/10/13 04:28:57;;;;;;;17.02;10.15;;;8.40;89.90;;;;;;5003485;28;20041;-73
2021/10/13 04:31:22;;;;;;;17.83;11.45;;;8.40;90.00;;;;;;5000185;28;20121;-76
2021/10/13 04:33:48;;;;;;;15.63;9.60;;;8.40;90.00;;;;;;5001540;28;20044;-73
2021/10/13 04:36:13;;;;;;;14.88;9.77;;;8.40;90.10;;;;;;5007065;28;20030;-74
2021/10/13 04:38:39;;;;;;;16.83;9.95;;;8.40;90.10;;;;;;5008791;28;20030;-74
2021/10/13 04:41:05;;;;;;;15.73;9.82;;;8.40;90.00;;;;;;5009087;28;20038;-73
2021/10/13 04:43:30;;;;;;;17.25;9.93;;;8.40;90.00;;;;;;5007872;28;20046;-79
2021/10/13 04:45:56;;;;;;;13.75;9.63;;;8.50;90.00;;;;;;5011203;28;20029;-74
2021/10/13 04:48:22;;;;;;;15.82;9.65;;;8.50;90.00;;;;;;5009392;28;20408;-80
2021/10/13 04:50:48;;;;;;;15.93;10.00;;;8.50;90.00;;;;;;5008184;28;20060;-77
2021/10/13 04:53:13;;;;;;;14.65;9.20;;;8.50;90.00;;;;;;4990762;28;20050;-73
2021/10/13 04:55:39;;;;;;;14.48;8.80;;;8.50;90.00;;;;;;5009242;28;20032;-74
2021/10/13 04:58:05;;;;;;;17.20;9.98;;;8.50;90.00;;;;;;5009060;28;20046;-73
2021/10/13 05:00:30;;;;;;;13.32;9.55;;;8.60;90.00;;;;;;4989588;28;20050;-75
2021/10/13 05:02:56;;;;;;;15.18;9.32;;;8.60;90.00;;;;;;5009258;28;20042;-73
2021/10/13 05:05:22;;;;;;;17.20;9.50;;;8.60;90.00;;;;;;4989443;28;20358;-74
2021/10/13 05:07:49;;;;;;;15.18;9.73;;;8.60;90.10;;;;;;5008713;28;20535;-74
2021/10/13 05:10:14;;;;;;;15.68;9.40;;;8.60;90.10;;;;;;5005083;28;20492;-74
2021/10/13 05:12:40;;;;;;;13.45;9.23;;;8.60;90.10;;;;;;5007001;28;20053;-74
2021/10/13 05:15:06;;;;;;;18.63;10.95;;;8.60;90.10;;;;;;5005667;28;20465;-80
2021/10/13 05:17:32;;;;;;;21.55;11.32;;;8.60;90.10;;;;;;5007904;28;20092;-74
2021/10/13 05:19:58;;;;;;;15.45;10.82;;;8.50;89.90;;;;;;5005365;28;20408;-75
2021/10/13 05:22:23;;;;;;;19.08;10.60;;;8.50;89.80;;;;;;5007854;28;20042;-74
2021/10/13 05:24:49;;;;;;;13.93;10.05;;;8.50;89.90;;;;;;5007380;28;20042;-75
2021/10/13 05:27:15;;;;;;;17.60;10.77;;;8.50;89.90;;;;;;5007977;28;20398;-74
2021/10/13 05:29:41;;;;;;;17.60;11.32;;;8.60;90.00;;;;;;4989391;28;20100;-77
2021/10/13 05:32:07;;;;;;;19.15;11.40;;;8.60;90.00;;;;;;5007628;28;20405;-74
2021/10/13 05:34:32;;;;;;;13.95;10.68;;;8.60;90.00;;;;;;5004177;28;20108;-71
2021/10/13 05:36:58;;;;;;;17.25;10.63;;;8.60;90.10;;;;;;5006959;28;20034;-72
2021/10/13 05:39:24;;;;;;;17.63;10.55;;;8.60;90.10;;;;;;5008256;28;20038;-72
2021/10/13 05:41:49;;;;;;;17.50;10.52;;;8.60;90.10;;;;;;5009809;28;20389;-72
2021/10/13 05:44:15;;;;;;;14.05;10.38;;;8.60;90.00;;;;;;5005803;28;21275;-72
2021/10/13 05:46:41;;;;;;;18.35;11.50;;;8.60;89.90;;;;;;5007836;28;20103;-71
2021/10/13 05:49:06;;;;;;;16.55;10.32;;;8.60;89.90;;;;;;5005978;28;20129;-71
2021/10/13 05:51:32;;;;;;;16.42;10.20;;;8.70;89.90;;;;;;5007253;28;20492;-76
2021/10/13 05:53:58;;;;;;;18.30;10.65;;;8.60;89.90;;;;;;4988709;28;20525;-71
2021/10/13 05:56:24;;;;;;;17.27;10.50;;;8.60;90.00;;;;;;5007385;28;20037;-75
2021/10/13 05:58:52;;;;;;;17.67;10.00;;;8.60;90.00;;;;;;5006417;28;20470;-69
2021/10/13 06:01:20;;;;;;;16.85;11.05;;;8.60;89.90;;;;;;5007833;28;20038;-69
2021/10/13 06:03:45;;;;;;;17.52;10.82;;;8.60;90.10;;;;;;4986675;28;20041;-73
2021/10/13 06:06:11;;;;;;;20.00;10.77;;;8.70;90.00;;;;;;5008144;28;20042;-72
2021/10/13 06:08:37;;;;;;;17.95;10.02;;;8.70;90.00;;;;;;5007177;28;20041;-71
2021/10/13 06:11:03;;;;;;;19.27;10.15;;;8.70;89.90;;;;;;5008366;28;20049;-69
2021/10/13 06:13:28;;;;;;;22.27;10.90;;;8.70;89.90;;;;;;5004659;28;20038;-69
2021/10/13 06:15:54;;;;;;;16.40;11.55;;;8.70;89.80;;;;;;5006179;28;20129;-70
2021/10/13 06:18:20;;;;;;;17.38;11.23;;;8.70;89.80;;;;;;4990403;28;20416;-72
2021/10/13 06:20:46;;;;;;;16.98;10.90;;;8.80;89.80;;;;;;5004816;28;20069;-69
2021/10/13 06:23:11;;;;;;;16.70;11.25;;;8.80;89.80;;;;;;5007193;28;20042;-69
2021/10/13 06:25:37;;;;;;;18.05;10.57;;;8.80;89.70;;;;;;5007681;28;20026;-70
2021/10/13 06:28:03;;;;;;;17.98;11.00;;;8.90;89.70;;;;;;5005796;28;20438;-70
2021/10/13 06:30:31;;;;;;;21.23;11.18;;;8.80;89.70;;;;;;5004028;28;20962;-69
2021/10/13 06:32:57;;;;;;;20.88;13.65;;;8.90;89.70;;;;;;5006701;28;20176;-69
2021/10/13 06:35:22;;;;;;;18.20;12.93;;;8.80;89.50;;;;;;5003697;28;21027;-70
2021/10/13 06:37:49;;;;;;;17.60;11.27;;;8.80;89.70;;;;;;5006527;28;20033;-69
2021/10/13 06:40:15;;;;;;;18.38;11.32;;;8.80;89.70;;;;;;4989110;28;20030;-70
2021/10/13 06:42:41;;;;;;;17.63;11.25;;;8.90;89.80;;;;;;5005314;28;20060;-69
2021/10/13 06:45:11;;;;;;;15.73;11.40;;;9.00;89.90;;;;;;5005020;28;20045;-70
2021/10/13 06:47:37;;;;;;;14.85;10.90;;;9.00;89.90;;;;;;5004736;28;20620;-73
2021/10/13 06:50:08;;;;;;;15.63;10.52;;;9.10;89.80;;;;;;5003654;28;20029;-70
2021/10/13 06:52:34;;;;;;;22.05;11.40;;;9.10;89.80;;;;;;4989252;28;20109;-70
2021/10/13 06:55:00;;;;;;;18.48;11.25;;;9.20;89.80;;;;;;5007110;28;20128;-71
2021/10/13 06:57:26;;;;;;;20.90;13.50;;;9.20;89.80;;;;;;5006070;28;20092;-69
2021/10/13 06:59:51;;;;;;;22.65;13.00;;;9.20;89.60;;;;;;5002798;28;20150;-69
2021/10/13 07:02:17;;;;;;;20.45;12.18;;;9.20;89.60;;;;;;5007275;28;20026;-69
2021/10/13 07:04:43;;;;;;;17.25;12.13;;;9.30;89.60;;;;;;5004657;28;20462;-73
2021/10/13 07:07:08;;;;;;;20.75;12.00;;;9.40;89.50;;;;;;5005112;28;20030;-71
2021/10/13 07:09:34;;;;;;;16.73;11.23;;;9.30;89.10;;;;;;5008191;28;20117;-70
2021/10/13 07:12:00;;;;;;;17.77;10.82;;;9.30;89.30;;;;;;4998336;28;20187;-71
2021/10/13 07:14:26;;;;;;;21.42;12.60;;;9.40;89.30;;;;;;4986838;28;21544;-70
2021/10/13 07:16:51;;;;;;;16.10;10.90;;;9.40;89.20;;;;;;5006743;28;20522;-70
2021/10/13 07:19:17;;;;;;;19.83;10.90;;;9.40;89.10;;;;;;5000340;28;20037;-69
2021/10/13 07:21:43;;;;;;;20.38;10.98;;;9.40;89.10;;;;;;5007406;28;20037;-69
2021/10/13 07:24:09;;;;;;;20.58;12.77;;;9.40;88.80;;;;;;5000274;28;20030;-70
2021/10/13 07:26:35;;;;;;;18.40;11.43;;;9.50;88.80;;;;;;5000190;28;20034;-69
2021/10/13 07:29:01;;;;;;;16.08;10.52;;;9.50;88.60;;;;;;5002198;28;20033;-72
2021/10/13 07:31:27;;;;;;;18.65;10.15;;;9.60;88.60;;;;;;5005794;28;20116;-68
2021/10/13 07:33:54;;;;;;;17.42;10.38;;;9.60;88.20;;;;;;5006967;28;20062;-70
2021/10/13 07:36:20;;;;;;;17.30;11.27;;;9.60;88.10;;;;;;5004768;28;20041;-69
2021/10/13 07:38:46;;;;;;;15.18;9.63;;;9.60;88.00;;;;;;5003540;28;20041;-72
2021/10/13 07:41:15;;;;;;;21.77;11.65;;;9.70;88.20;;;;;;5001760;28;20041;-71
2021/10/13 07:43:40;;;;;;;14.60;9.82;;;9.70;87.60;;;;;;5003031;28;20113;-71
2021/10/13 07:46:06;;;;;;;14.30;8.90;;;9.80;87.60;;;;;;5003446;28;20117;-71
2021/10/13 07:48:32;;;;;;;15.30;10.27;;;9.80;87.60;;;;;;5006173;28;20113;-71
2021/10/13 07:50:58;;;;;;;15.95;9.63;;;9.90;87.40;;;;;;5004337;28;20041;-71
2021/10/13 07:53:26;;;;;;;17.67;11.57;;;10.00;87.20;;;;;;5003429;28;20035;-70
2021/10/13 07:55:51;;;;;;;19.50;10.93;;;10.10;86.90;;;;;;5006817;28;20025;-73
2021/10/13 07:58:17;;;;;;;16.77;10.38;;;10.10;86.80;;;;;;5001664;28;20040;-71
2021/10/13 08:00:43;;;;;;;13.70;9.25;;;10.10;86.30;;;;;;5006809;28;20029;-72
2021/10/13 08:03:11;;;;;;;16.70;9.95;;;10.10;86.20;;;;;;5003977;28;20120;-76
2021/10/13 08:05:37;;;;;;;17.48;11.15;;;10.20;85.90;;;;;;5006277;28;20053;-71
2021/10/13 08:08:03;;;;;;;15.85;9.57;;;10.30;85.90;;;;;;5003975;28;20029;-72
2021/10/13 08:10:29;;;;;;;17.05;10.93;;;10.40;85.60;;;;;;5005555;28;20042;-73
2021/10/13 08:12:55;;;;;;;16.15;9.90;;;10.40;85.40;;;;;;5009498;28;20604;-73
2021/10/13 08:15:20;;;;;;;19.42;10.02;;;10.50;85.30;;;;;;5010816;28;20555;-72
2021/10/13 08:17:46;;;;;;;18.38;9.75;;;10.60;84.80;;;;;;5010734;28;20034;-71
2021/10/13 08:20:13;;;;;;;15.77;10.77;;;10.70;84.40;;;;;;5008159;28;20033;-73
2021/10/13 08:22:40;;;;;;;17.58;9.65;;;10.70;84.10;;;;;;5008122;28;20368;-72
2021/10/13 08:25:06;;;;;;;18.73;10.73;;;10.80;83.90;;;;;;5002233;28;20027;-71
2021/10/13 08:27:32;;;;;;;18.25;10.43;;;10.80;83.80;;;;;;5009540;28;20054;-73
2021/10/13 08:29:58;;;;;;;18.52;10.00;;;10.80;83.50;;;;;;5011367;28;20123;-72
2021/10/13 08:32:23;;;;;;;22.42;11.00;;;10.80;83.10;;;;;;5005641;28;20052;-73
2021/10/13 08:34:49;;;;;;;19.80;11.43;;;10.80;83.00;;;;;;5007132;28;20030;-72
2021/10/13 08:37:15;;;;;;;22.65;12.20;;;11.00;83.40;;;;;;5005204;28;20041;-72
2021/10/13 08:39:41;;;;;;;20.55;12.30;;;11.30;82.60;;;;;;5004575;28;20057;-77
2021/10/13 08:42:07;;;;;;;22.92;11.10;;;11.60;81.90;;;;;;5006362;28;20325;-76
2021/10/13 08:44:33;;;;;;;22.45;10.57;;;11.90;80.50;;;;;;5008268;28;20041;-74
2021/10/13 08:47:00;;;;;;;21.85;10.40;;;12.10;79.40;;;;;;5007731;28;20465;-73
2021/10/13 08:49:26;;;;;;;18.58;9.57;;;12.30;78.60;;;;;;4990219;28;20429;-71
2021/10/13 08:51:51;;;;;;;16.40;9.93;;;12.40;78.40;;;;;;5007727;28;20069;-72
2021/10/13 08:54:18;;;;;;;14.50;9.02;;;12.60;78.20;;;;;;5004322;28;20030;-73
2021/10/13 08:56:44;;;;;;;16.83;8.98;;;12.70;77.50;;;;;;5008581;28;20512;-73
2021/10/13 08:59:40;;;;;;;16.75;8.77;;;12.80;77.00;;;;;;5007212;28;20054;-75
2021/10/13 09:02:07;;;;;;;16.08;8.90;;;13.00;77.00;;;;;;5006457;28;20046;-74
2021/10/13 09:04:33;;;;;;;17.48;8.90;;;13.20;76.40;;;;;;5006970;28;20053;-71
2021/10/13 09:07:06;;;;;;;19.65;9.10;;;13.10;76.40;;;;;;5008194;28;20026;-74
2021/10/13 09:09:32;;;;;;;15.95;8.68;;;13.20;75.10;;;;;;5006902;28;20033;-73
2021/10/13 09:11:58;;;;;;;14.45;8.10;;;13.30;75.30;;;;;;5006492;28;20049;-72
2021/10/13 09:14:29;;;;;;;14.30;8.43;;;13.40;75.30;;;;;;5006599;28;20030;-72
2021/10/13 09:17:10;;;;;;;13.15;7.68;;;13.40;75.10;;;;;;5007106;28;20440;-74
2021/10/13 09:19:44;;;;;;;13.95;8.00;;;13.30;74.70;;;;;;5006235;28;20440;-76
2021/10/13 09:22:19;;;;;;;14.27;7.87;;;13.50;74.50;;;;;;5006519;28;20448;-76
2021/10/13 09:24:47;;;;;;;15.23;7.07;;;13.60;73.20;;;;;;5005996;28;20511;-72
2021/10/13 09:27:24;;;;;;;16.70;8.23;;;13.60;74.20;;;;;;5004971;28;20068;-74
2021/10/13 09:30:07;;;;;;;14.63;7.22;;;13.70;73.40;;;;;;5007641;28;20034;-71
2021/10/13 09:32:33;;;;;;;16.55;7.53;;;13.70;72.00;;;;;;5006687;28;20485;-72
2021/10/13 09:34:58;;;;;;;16.60;7.45;;;13.70;72.90;;;;;;5005849;28;20065;-75
2021/10/13 09:37:41;;;;;;;15.10;6.20;;;13.90;73.10;;;;;;5004996;28;20109;-72
2021/10/13 09:40:07;;;;;;;15.18;6.35;;;14.00;72.30;;;;;;4988584;28;20517;-71
2021/10/13 09:42:41;;;;;;;15.57;6.15;;;14.10;71.70;;;;;;4991083;28;20180;-71
2021/10/13 09:45:11;;;;;;;14.07;6.10;;;14.00;72.40;;;;;;5007895;28;20458;-71
2021/10/13 09:47:38;;;;;;;17.70;5.90;;;13.90;72.70;;;;;;5007307;28;20034;-70
2021/10/13 09:50:14;;;;;;;11.55;5.43;;;14.10;72.80;;;;;;5004481;28;20165;-72
2021/10/13 09:52:41;;;;;;;9.73;5.28;;;14.30;72.60;;;;;;5007219;28;20050;-71
2021/10/13 09:55:09;;;;;;;10.55;5.28;;;14.30;72.60;;;;;;5008024;28;20092;-71
2021/10/13 09:57:43;;;;;;;13.95;5.10;;;14.50;71.70;;;;;;4991056;28;20038;-71
2021/10/13 10:00:11;;;;;;;12.82;5.50;;;14.60;71.70;;;;;;5011259;28;20046;-73
2021/10/13 10:02:59;;;;;;;16.02;6.22;;;14.70;71.10;;;;;;5009625;28;20049;-73
2021/10/13 10:05:33;;;;;;;16.73;5.30;;;14.90;70.40;;;;;;5005365;28;20059;-69
2021/10/13 10:08:07;;;;;;;13.68;5.65;;;15.10;70.40;;;;;;5005432;28;20100;-71
2021/10/13 10:10:35;;;;;;;14.50;5.70;;;15.10;70.00;;;;;;5006348;28;20032;-75
2021/10/13 10:13:09;;;;;;;14.05;5.57;;;15.10;70.20;;;;;;5005086;28;20109;-75
2021/10/13 10:15:43;;;;;;;11.80;4.60;;;14.80;70.50;;;;;;5009681;28;20087;-73
2021/10/13 10:18:34;;;;;;;11.52;4.50;;;14.90;70.10;;;;;;5006976;28;20037;-72
2021/10/13 10:21:17;;;;;;;11.40;4.13;;;15.10;71.10;;;;;;5002557;28;20090;-74
2021/10/13 10:23:44;;;;;;;11.88;3.97;;;15.20;69.40;;;;;;5005492;28;20061;-73
2021/10/13 10:26:25;;;;;;;12.60;3.67;;;15.30;70.30;;;;;;5006438;28;20022;-71
2021/10/13 10:28:51;;;;;;;10.35;3.28;;;15.60;68.90;;;;;;5007314;28;20049;-73
2021/10/13 10:31:31;;;;;;;10.65;3.58;;;15.80;67.60;;;;;;5006788;28;20382;-72
2021/10/13 10:34:03;;;;;;;8.25;3.35;;;15.80;67.40;;;;;;5005898;28;20046;-73
2021/10/13 10:36:35;;;;;;;9.98;3.83;;;15.70;67.20;;;;;;5005598;28;20037;-72
2021/10/13 10:39:12;;;;;;;8.02;2.65;;;15.80;66.70;;;;;;5001247;28;20481;-77
2021/10/13 10:41:41;;;;;;;8.63;2.85;;;15.80;66.50;;;;;;4999159;28;20030;-71
2021/10/13 10:44:29;;;;;;;6.93;2.83;;;15.60;66.20;;;;;;4997232;28;20505;-70
2021/10/13 10:47:13;;;;;;;10.90;3.88;;;15.50;67.10;;;;;;5002636;28;20197;-71
2021/10/13 10:49:50;;;;;;;12.32;2.83;;;15.30;67.00;;;;;;4999664;28;20133;-73
2021/10/13 10:52:26;;;;;;;8.75;2.72;;;15.30;64.70;;;;;;5000934;28;20569;-71
2021/10/13 10:55:05;;;;;;;11.60;2.95;;;15.60;66.10;;;;;;4998941;28;20121;-69
2021/10/13 10:57:32;;;;;;;11.07;3.28;;;16.00;66.10;;;;;;5001478;28;20042;-70
2021/10/13 10:59:59;;;;;;;9.65;2.83;;;16.10;65.30;;;;;;4999548;28;20046;-72
2021/10/13 11:02:25;;;;;;;8.00;2.42;;;16.10;65.50;;;;;;5000979;28;20041;-73
2021/10/13 11:05:09;;;;;;;6.40;1.80;;;15.90;64.00;;;;;;5003238;28;20110;-73
2021/10/13 11:07:36;;;;;;;6.15;1.85;;;15.50;63.90;;;;;;4994399;28;20434;-71
2021/10/13 11:10:07;;;;;;;6.78;2.28;;;15.30;64.90;;;;;;4983481;28;20429;-70
2021/10/13 11:12:46;;;;;;;5.90;2.00;;;15.20;65.70;;;;;;5002204;28;20139;-70
2021/10/13 11:15:13;;;;;;;8.75;2.13;;;15.00;66.40;;;;;;5000676;28;20042;-71
2021/10/13 11:17:39;;;;;;;7.25;2.20;;;14.80;65.80;;;;;;5000033;28;20121;-71
2021/10/13 11:20:13;;;;;;;8.13;2.58;;;14.80;66.30;;;;;;5002686;28;20172;-70
2021/10/13 11:22:39;;;;;;;7.72;2.70;;;14.70;67.30;;;;;;4999436;28;20037;-70
2021/10/13 11:25:17;;;;;;;9.25;2.63;;;14.70;67.90;;;;;;4984677;28;20041;-75
2021/10/13 11:27:56;;;;;;;10.10;2.95;;;14.90;67.80;;;;;;4998696;28;20548;-70
2021/10/13 11:30:22;;;;;;;10.20;2.58;;;14.80;68.00;;;;;;5004917;28;20033;-69
2021/10/13 11:32:48;;;;;;;10.13;2.47;;;14.80;67.50;;;;;;4988597;28;20048;-76
2021/10/13 11:35:17;;;;;;;9.68;2.47;;;14.70;67.60;;;;;;4985881;28;20026;-72
2021/10/13 11:37:51;;;;;;;10.57;2.10;;;14.70;68.40;;;;;;5003285;28;20137;-75
2021/10/13 11:40:18;;;;;;;7.80;2.17;;;14.70;67.40;;;;;;5006045;28;20034;-69
2021/10/13 11:42:44;;;;;;;9.40;2.67;;;14.80;67.80;;;;;;5004210;28;20042;-69
2021/10/13 11:45:15;;;;;;;8.00;2.22;;;14.90;67.50;;;;;;5005635;28;20112;-69
2021/10/13 11:47:41;;;;;;;6.97;2.45;;;15.10;66.50;;;;;;4991399;28;20091;-69
2021/10/13 11:50:18;;;;;;;9.43;2.33;;;15.40;66.80;;;;;;5007240;28;20038;-69
2021/10/13 11:52:54;;;;;;;10.93;2.40;;;15.60;65.00;;;;;;5007426;28;20132;-70
2021/10/13 11:55:21;;;;;;;6.15;1.80;;;15.40;62.90;;;;;;5006109;28;20054;-73
2021/10/13 11:57:57;;;;;;;7.32;2.03;;;15.30;62.60;;;;;;5005740;28;20034;-72
2021/10/13 12:00:31;;;;;;;6.63;1.83;;;15.20;62.90;;;;;;4990248;28;20038;-69
2021/10/13 12:03:07;;;;;;;7.70;2.35;;;15.30;62.30;;;;;;5007114;28;20049;-69
2021/10/13 12:05:41;;;;;;;9.23;2.22;;;15.20;61.50;;;;;;5006109;28;20718;-75
2021/10/13 12:08:13;;;;;;;4.83;1.80;;;15.30;62.60;;;;;;4991088;28;20494;-71
2021/10/13 12:10:45;;;;;;;5.40;2.05;;;15.40;63.30;;;;;;5008992;28;20284;-69
2021/10/13 12:13:23;;;;;;;5.82;2.08;;;15.30;64.00;;;;;;5007661;28;20129;-70
2021/10/13 12:15:49;;;;;;;7.40;2.28;;;15.10;64.10;;;;;;5007418;28;20088;-76
2021/10/13 12:18:17;;;;;;;9.15;2.53;;;15.10;65.40;;;;;;5010680;28;20400;-71
2021/10/13 12:20:48;;;;;;;8.68;2.53;;;15.10;64.80;;;;;;5010133;28;20084;-71
2021/10/13 12:23:19;;;;;;;9.63;2.30;;;15.00;64.40;;;;;;5008873;28;20429;-70
2021/10/13 12:25:45;;;;;;;5.78;1.88;;;15.00;64.30;;;;;;5006808;28;20037;-73
2021/10/13 12:28:16;;;;;;;7.20;2.25;;;15.10;63.90;;;;;;5009194;28;20048;-70
2021/10/13 12:30:43;;;;;;;8.60;2.15;;;15.10;64.30;;;;;;5009744;28;20390;-70
2021/10/13 12:33:15;;;;;;;5.47;1.90;;;15.10;64.70;;;;;;5005164;28;20038;-74
2021/10/13 12:35:42;;;;;;;7.53;2.10;;;15.10;64.80;;;;;;5008049;28;20042;-71
2021/10/13 12:38:14;;;;;;;9.50;1.92;;;15.30;64.20;;;;;;5004950;28;20038;-75
2021/10/13 12:40:58;;;;;;;8.40;2.00;;;15.40;62.50;;;;;;4990824;28;20050;-73
2021/10/13 12:43:24;;;;;;;8.73;2.00;;;15.40;61.90;;;;;;5004507;28;20034;-73
2021/10/13 12:45:49;;;;;;;6.05;2.00;;;15.60;61.50;;;;;;5000131;28;20040;-74
2021/10/13 12:48:17;;;;;;;8.18;1.90;;;15.40;60.40;;;;;;4994693;28;20037;-76
2021/10/13 12:51:06;;;;;;;6.28;2.20;;;15.50;61.50;;;;;;4997611;28;20127;-75